Terminal Aerodrome Forecast
Issued by NWS Goodland, KS

Home | Current Version | Previous Version | Text Only | Print | Product List | Glossary On
Versions: 1 2 3 4 5 6 7 8 9 10 11 12 13 14 15 16 17 18
332
FTUS43 KGLD 231120
TAFGLD
TAF
KGLD 231120Z 2312/2412 32010KT P6SM FEW250
     FM231400 33015G21KT P6SM FEW050 SCT100 SCT250
     FM231700 34020G30KT P6SM BKN050
     FM240200 36008KT P6SM SCT050
     FM240500 31005KT P6SM FEW050=

USA.gov is the U.S. government's official web portal to all federal, state and local government web resources and services.